Time;durP1;ratioP1;P1;durP2;ratioP2;P2;SDS_P1;SDS_P2;PMS_P1;PMS_P2;Temp;Humidity;BMP_temperature;BMP_pressure;BME280_temperature;BME280_humidity;BME280_pressure;Samples;Min_cycle;Max_cycle;Signal;HPM_P1;HPM_P2
2023/01/30 00:00:59;;;;;;;26.20;10.23;;;;;;;-145.69;100.00;52725.63;5117223;28;20193;-81
2023/01/30 00:03:30;;;;;;;23.43;9.00;;;;;;;-145.69;100.00;52789.00;5117292;28;20201;-81
2023/01/30 00:05:56;;;;;;;22.87;9.43;;;;;;;-145.69;100.00;52796.91;5116983;28;20197;-82
2023/01/30 00:08:23;;;;;;;20.27;8.63;;;;;;;-145.69;100.00;52785.03;5116757;28;20225;-82
2023/01/30 00:10:51;;;;;;;23.30;8.80;;;;;;;-145.69;100.00;52713.72;5116615;28;20561;-81
2023/01/30 00:13:18;;;;;;;27.20;8.70;;;;;;;-145.69;100.00;52753.34;5116889;28;20201;-82
2023/01/30 00:15:44;;;;;;;24.60;9.33;;;;;;;-145.69;100.00;52765.22;5116542;28;20202;-81
2023/01/30 00:18:12;;;;;;;23.23;9.03;;;;;;;-145.69;100.00;52729.56;5116911;28;20223;-82
2023/01/30 00:20:39;;;;;;;30.17;10.17;;;;;;;-145.69;100.00;52767.19;5116411;28;20660;-82
2023/01/30 00:23:06;;;;;;;26.40;9.57;;;;;;;-145.69;100.00;52731.56;5116384;28;20208;-81
2023/01/30 00:25:32;;;;;;;24.37;9.17;;;;;;;-145.69;100.00;52773.16;5116521;28;20273;-81
2023/01/30 00:28:00;;;;;;;29.73;10.20;;;;;;;-145.69;100.00;52765.22;5116346;28;20232;-81
2023/01/30 00:30:28;;;;;;;22.70;8.97;;;;;;;-145.69;100.00;52773.16;5116435;28;20209;-81
2023/01/30 00:32:55;;;;;;;25.97;8.70;;;;;;;-145.69;100.00;52771.16;5115794;28;20193;-81
2023/01/30 00:35:27;;;;;;;22.60;9.13;;;;;;;-145.69;100.00;52717.69;5094965;28;20668;-81
2023/01/30 00:37:55;;;;;;;27.87;9.30;;;;;;;-145.69;100.00;52731.56;5095759;28;20247;-80
2023/01/30 00:40:21;;;;;;;26.27;9.33;;;;;;;-145.69;100.00;52767.19;5096313;28;20198;-80
2023/01/30 00:48:16;;;;;;;22.23;9.33;;;;;;;-145.69;100.00;52739.47;5116000;28;20698;-79
2023/01/30 00:50:46;;;;;;;25.63;9.13;;;;;;;-145.69;100.00;52721.66;5115871;28;20205;-80
2023/01/30 00:53:15;;;;;;;24.17;8.97;;;;;;;-145.69;100.00;52761.25;5115829;28;20197;-80
2023/01/30 00:55:44;;;;;;;25.60;9.00;;;;;;;-145.69;100.00;52804.84;5115623;28;20208;-80
2023/01/30 00:58:11;;;;;;;23.97;9.60;;;;;;;-145.69;100.00;52741.47;5115859;28;20610;-80
2023/01/30 01:00:41;;;;;;;21.93;8.67;;;;;;;-145.69;100.00;52723.63;5115782;28;20617;-80
2023/01/30 01:03:07;;;;;;;22.60;8.37;;;;;;;-145.69;100.00;52757.31;5114296;28;20197;-80
2023/01/30 01:05:37;;;;;;;26.87;9.77;;;;;;;-145.69;100.00;52749.38;5115546;28;20202;-80
2023/01/30 01:08:05;;;;;;;23.87;8.87;;;;;;;-145.69;100.00;52753.34;5115652;28;20225;-80
2023/01/30 01:10:32;;;;;;;27.43;9.70;;;;;;;-145.69;100.00;52749.38;5116150;28;20203;-79
2023/01/30 01:13:05;;;;;;;23.37;8.37;;;;;;;-145.69;100.00;52741.47;5115277;28;20196;-79
2023/01/30 01:15:31;;;;;;;21.37;8.10;;;;;;;-145.69;100.00;52721.66;5115401;28;20197;-78
2023/01/30 01:17:58;;;;;;;15.20;6.87;;;;;;;-145.69;100.00;52775.13;5115301;28;20209;-79
2023/01/30 01:20:25;;;;;;;20.10;7.63;;;;;;;-145.69;100.00;52743.44;5115230;28;20205;-80
2023/01/30 01:22:53;;;;;;;23.00;7.97;;;;;;;-145.69;100.00;52737.50;5115289;28;20201;-79
2023/01/30 01:25:22;;;;;;;17.30;7.40;;;;;;;-145.69;100.00;52737.50;5115130;28;20224;-80
2023/01/30 01:27:49;;;;;;;22.63;8.73;;;;;;;-145.69;100.00;52751.34;5114913;28;20320;-78
2023/01/30 01:30:16;;;;;;;21.03;7.67;;;;;;;-145.69;100.00;52725.63;5115207;28;20230;-80
2023/01/30 01:32:42;;;;;;;20.50;7.83;;;;;;;-145.69;100.00;52737.50;5114971;28;20548;-80
2023/01/30 01:35:10;;;;;;;19.07;7.37;;;;;;;-145.69;100.00;52745.41;5115053;28;20293;-79
2023/01/30 01:37:37;;;;;;;22.77;8.70;;;;;;;-145.69;100.00;52725.63;5115037;28;20601;-79
2023/01/30 01:42:50;;;;;;;21.47;8.20;;;;;;;-145.69;100.00;52761.25;5114692;28;20203;-80
2023/01/30 01:45:20;;;;;;;18.53;7.33;;;;;;;-145.69;100.00;52723.63;5114237;28;20740;-80
2023/01/30 01:47:56;;;;;;;18.27;7.07;;;;;;;-145.69;100.00;52757.31;5114731;28;20294;-80
2023/01/30 01:50:28;;;;;;;20.50;7.13;;;;;;;-145.69;100.00;52763.25;5114577;28;20204;-79
2023/01/30 01:52:59;;;;;;;21.47;7.80;;;;;;;-145.69;100.00;52761.25;5114641;28;20213;-79
2023/01/30 01:55:27;;;;;;;17.57;7.13;;;;;;;-145.69;100.00;52735.50;5114553;28;20204;-80
2023/01/30 01:58:04;;;;;;;18.07;7.00;;;;;;;-145.69;100.00;52745.41;5114438;28;20209;-80
2023/01/30 02:00:33;;;;;;;14.83;6.07;;;;;;;-145.69;100.00;52749.38;5114581;28;20200;-80
2023/01/30 02:03:03;;;;;;;18.60;7.57;;;;;;;-145.69;100.00;52759.28;5114485;28;20233;-80
2023/01/30 02:05:34;;;;;;;13.47;6.07;;;;;;;-145.69;100.00;52753.34;5114284;28;20544;-79
2023/01/30 02:08:06;;;;;;;16.67;7.10;;;;;;;-145.69;100.00;52741.47;5114342;28;20588;-79
2023/01/30 02:10:43;;;;;;;17.70;6.57;;;;;;;-145.69;100.00;52733.53;5114217;28;20235;-80
2023/01/30 02:13:11;;;;;;;14.73;5.93;;;;;;;-145.69;100.00;52747.41;5114126;28;20228;-79
2023/01/30 02:15:37;;;;;;;14.10;6.37;;;;;;;-145.69;100.00;52741.47;5114174;28;20197;-79
2023/01/30 02:18:04;;;;;;;20.17;7.70;;;;;;;-145.69;100.00;52796.91;5114102;28;20213;-79
2023/01/30 02:20:48;;;;;;;20.13;8.67;;;;;;;-145.69;100.00;52745.41;5114008;28;20272;-79
2023/01/30 02:23:42;;;;;;;17.43;7.20;;;;;;;-145.69;100.00;52781.06;5113710;28;20741;-80
2023/01/30 02:26:46;;;;;;;18.77;7.70;;;;;;;-145.69;100.00;52741.47;5114019;28;20205;-79
2023/01/30 02:29:42;;;;;;;21.80;8.27;;;;;;;-145.69;100.00;52767.19;5113739;28;20545;-80
2023/01/30 02:32:20;;;;;;;22.70;8.83;;;;;;;-145.69;100.00;52717.69;5093493;28;20284;-80
2023/01/30 02:34:57;;;;;;;16.70;6.90;;;;;;;-145.69;100.00;52753.34;5093333;28;20213;-80
2023/01/30 02:37:35;;;;;;;18.67;8.07;;;;;;;-145.69;100.00;52737.50;5112480;28;20280;-80
2023/01/30 02:40:17;;;;;;;18.93;6.67;;;;;;;-145.69;100.00;52743.44;5113818;28;20260;-80
2023/01/30 02:42:52;;;;;;;23.83;8.23;;;;;;;-145.69;100.00;52769.19;5113860;28;20219;-80
2023/01/30 02:45:25;;;;;;;18.70;7.30;;;;;;;-145.69;100.00;52767.19;5113568;28;20251;-80
2023/01/30 02:47:58;;;;;;;16.23;7.10;;;;;;;-145.69;100.00;52733.53;5113394;28;20197;-80
2023/01/30 02:50:28;;;;;;;17.57;7.83;;;;;;;-145.69;100.00;52741.47;5113670;28;20203;-80
2023/01/30 02:52:56;;;;;;;17.00;7.20;;;;;;;-145.69;100.00;52745.41;5113694;28;20204;-80
2023/01/30 02:55:25;;;;;;;18.23;7.50;;;;;;;-145.69;100.00;52759.28;5113559;28;20201;-80
2023/01/30 02:57:52;;;;;;;17.80;7.30;;;;;;;-145.69;100.00;52729.56;5112995;28;20204;-81
2023/01/30 03:00:24;;;;;;;14.80;6.10;;;;;;;-145.69;100.00;52773.16;5113320;28;20189;-79
2023/01/30 03:03:15;;;;;;;19.57;6.83;;;;;;;-145.69;100.00;52729.56;5113696;28;20254;-80
2023/01/30 03:06:05;;;;;;;24.33;8.97;;;;;;;-145.69;100.00;52727.59;5113304;28;20551;-79
2023/01/30 03:08:39;;;;;;;20.57;8.83;;;;;;;-145.69;100.00;52757.31;5112913;28;20225;-80
2023/01/30 03:11:08;;;;;;;29.57;11.27;;;;;;;-145.69;100.00;52761.25;5113370;28;20232;-80
2023/01/30 03:13:44;;;;;;;31.53;11.80;;;;;;;-145.69;100.00;52773.16;5113334;28;20284;-80
2023/01/30 03:16:15;;;;;;;33.37;12.07;;;;;;;-145.69;100.00;52753.34;5113320;28;20224;-80
2023/01/30 03:18:45;;;;;;;22.07;8.40;;;;;;;-145.69;100.00;52749.38;5113568;28;20197;-80
2023/01/30 03:21:12;;;;;;;21.57;8.83;;;;;;;-145.69;100.00;52769.19;5113223;28;20292;-80
2023/01/30 03:23:38;;;;;;;19.70;8.87;;;;;;;-145.69;100.00;52753.34;5113152;28;20205;-80
2023/01/30 03:26:09;;;;;;;23.90;9.50;;;;;;;-145.69;100.00;52731.56;5113294;28;20296;-79
2023/01/30 03:28:37;;;;;;;29.33;10.30;;;;;;;-145.69;100.00;52749.38;5112833;28;20212;-79
2023/01/30 03:31:03;;;;;;;32.97;11.20;;;;;;;-145.69;100.00;52765.22;5112842;28;20281;-80
2023/01/30 03:33:30;;;;;;;31.87;10.47;;;;;;;-145.69;100.00;52741.47;5113019;28;20224;-79
2023/01/30 03:35:58;;;;;;;28.07;11.20;;;;;;;-145.69;100.00;52749.38;5111802;28;20201;-80
2023/01/30 03:38:24;;;;;;;30.63;11.07;;;;;;;-145.69;100.00;52769.19;5113002;28;20579;-80
2023/01/30 03:40:51;;;;;;;26.10;10.17;;;;;;;-145.69;100.00;52749.38;5113240;28;20300;-79
2023/01/30 03:43:17;;;;;;;29.80;10.43;;;;;;;-145.69;100.00;52765.22;5112985;28;20562;-79
2023/01/30 03:45:44;;;;;;;26.77;9.63;;;;;;;-145.69;100.00;52767.19;5112883;28;20252;-79
2023/01/30 03:48:10;;;;;;;25.63;10.57;;;;;;;-145.69;100.00;52705.81;5112718;28;20193;-79
2023/01/30 03:50:37;;;;;;;25.50;9.67;;;;;;;-145.69;100.00;52741.47;5113194;28;20216;-79
2023/01/30 03:53:05;;;;;;;24.17;9.00;;;;;;;-145.69;100.00;52747.41;5112891;28;20202;-80
2023/01/30 03:55:31;;;;;;;19.67;7.57;;;;;;;-145.69;100.00;52755.31;5112926;28;20208;-80
2023/01/30 03:57:58;;;;;;;22.47;8.73;;;;;;;-145.69;100.00;52751.34;5112699;28;20198;-79
2023/01/30 04:00:24;;;;;;;20.77;8.33;;;;;;;-145.69;100.00;52753.34;5112875;28;20197;-79
2023/01/30 04:02:52;;;;;;;27.92;12.07;;;;;;;-145.69;100.00;52733.53;5112453;28;20446;-79
2023/01/30 04:05:19;;;;;;;25.00;10.30;;;;;;;-145.69;100.00;52755.31;5112414;28;20193;-80
2023/01/30 04:07:45;;;;;;;24.77;9.40;;;;;;;-145.69;100.00;52759.28;5113081;28;20186;-79
2023/01/30 04:10:14;;;;;;;22.67;8.53;;;;;;;-145.69;100.00;52767.19;5116253;28;20229;-79
2023/01/30 04:12:41;;;;;;;23.33;8.90;;;;;;;-145.69;100.00;52765.22;5116430;28;20202;-80
2023/01/30 04:15:09;;;;;;;29.60;9.97;;;;;;;-145.69;100.00;52761.25;5116379;28;20227;-78
2023/01/30 04:17:35;;;;;;;24.20;8.57;;;;;;;-145.69;100.00;52737.50;5116822;28;20205;-80
2023/01/30 04:20:02;;;;;;;23.37;8.77;;;;;;;-145.69;100.00;52761.25;5116454;28;20225;-80
2023/01/30 04:22:29;;;;;;;21.50;9.03;;;;;;;-145.69;100.00;52769.19;5116318;28;20243;-79
2023/01/30 04:24:55;;;;;;;26.97;9.73;;;;;;;-145.69;100.00;52796.91;5116220;28;20209;-79
2023/01/30 04:27:23;;;;;;;26.10;9.37;;;;;;;-145.69;100.00;52773.16;5116261;28;20203;-80
2023/01/30 04:29:49;;;;;;;19.60;8.30;;;;;;;-145.69;100.00;52781.06;5115519;28;20615;-80
2023/01/30 04:32:16;;;;;;;27.27;9.13;;;;;;;-145.69;100.00;52761.25;5116000;28;20656;-79
2023/01/30 04:34:43;;;;;;;28.30;9.30;;;;;;;-145.69;100.00;52771.16;5115924;28;20656;-79
2023/01/30 04:37:10;;;;;;;21.70;8.07;;;;;;;-145.69;100.00;52729.56;5114366;28;20284;-79
2023/01/30 04:39:36;;;;;;;22.93;9.13;;;;;;;-145.69;100.00;52796.91;5115832;28;20197;-79
2023/01/30 04:42:03;;;;;;;24.13;8.23;;;;;;;-145.69;100.00;52751.34;5115885;28;20189;-79
2023/01/30 04:44:31;;;;;;;21.47;8.33;;;;;;;-145.69;100.00;52777.09;5115705;28;20204;-78
2023/01/30 04:46:57;;;;;;;22.57;8.33;;;;;;;-145.69;100.00;52729.56;5115957;28;20559;-79
2023/01/30 04:49:24;;;;;;;24.20;8.33;;;;;;;-145.69;100.00;52759.28;5115934;28;20225;-79
2023/01/30 04:51:50;;;;;;;24.63;8.87;;;;;;;-145.69;100.00;52753.34;5115860;28;20209;-80
2023/01/30 04:54:17;;;;;;;28.77;10.03;;;;;;;-145.69;100.00;52745.41;5115693;28;20206;-79
2023/01/30 04:56:43;;;;;;;21.50;8.20;;;;;;;-145.69;100.00;52777.09;5115656;28;20212;-79
2023/01/30 04:59:10;;;;;;;20.20;9.50;;;;;;;-145.69;100.00;52753.34;5115416;28;20201;-79
2023/01/30 05:01:39;;;;;;;24.00;8.87;;;;;;;-145.69;100.00;52749.38;5115027;28;20198;-79
2023/01/30 05:04:07;;;;;;;21.33;8.43;;;;;;;-145.69;100.00;52792.94;5115597;28;20193;-80
2023/01/30 05:06:35;;;;;;;23.27;7.50;;;;;;;-145.69;100.00;52789.00;5115475;28;20576;-78
2023/01/30 05:09:02;;;;;;;23.20;8.43;;;;;;;-145.69;100.00;52749.38;5115498;28;20225;-79
2023/01/30 05:11:31;;;;;;;20.70;7.93;;;;;;;-145.69;100.00;52753.34;5115448;28;20200;-79
2023/01/30 05:13:58;;;;;;;16.87;7.17;;;;;;;-145.69;100.00;52757.31;5115375;28;20735;-79
2023/01/30 05:16:25;;;;;;;14.50;6.43;;;;;;;-145.69;100.00;52733.53;5115304;28;20202;-79
2023/01/30 05:18:53;;;;;;;18.27;7.70;;;;;;;-145.69;100.00;52703.81;5115441;28;20225;-79
2023/01/30 05:21:22;;;;;;;21.97;7.23;;;;;;;-145.69;100.00;52751.34;5113875;28;20216;-79
2023/01/30 05:23:49;;;;;;;14.17;6.53;;;;;;;-145.69;100.00;52749.38;5115427;28;20197;-79
2023/01/30 05:26:15;;;;;;;18.30;6.47;;;;;;;-145.69;100.00;52743.44;5115549;28;20197;-79
2023/01/30 05:28:42;;;;;;;19.03;7.00;;;;;;;-145.69;100.00;52737.50;5115356;28;20209;-78
2023/01/30 05:31:11;;;;;;;17.60;7.27;;;;;;;-145.69;100.00;52741.47;5115353;28;20204;-78
2023/01/30 05:33:39;;;;;;;21.20;8.30;;;;;;;-145.69;100.00;52769.19;5114328;28;20439;-79
2023/01/30 05:36:08;;;;;;;16.40;7.03;;;;;;;-145.69;100.00;52753.34;5114911;28;20198;-79
2023/01/30 05:38:34;;;;;;;13.93;6.23;;;;;;;-145.69;100.00;52753.34;5114817;28;20201;-79
2023/01/30 05:41:01;;;;;;;16.73;6.67;;;;;;;-145.69;100.00;52727.59;5114256;28;20212;-79
2023/01/30 05:43:29;;;;;;;16.63;6.87;;;;;;;-145.69;100.00;52741.47;5114851;28;20198;-79
2023/01/30 05:45:57;;;;;;;19.10;7.37;;;;;;;-145.69;100.00;52737.50;5114718;28;20251;-79
2023/01/30 05:48:24;;;;;;;16.83;7.40;;;;;;;-145.69;100.00;52741.47;5114805;28;20198;-78
2023/01/30 05:50:51;;;;;;;15.63;6.90;;;;;;;-145.69;100.00;52747.41;5114872;28;20221;-78
2023/01/30 05:53:23;;;;;;;19.43;7.60;;;;;;;-145.69;100.00;52765.22;5114533;28;20228;-79
2023/01/30 05:55:55;;;;;;;19.43;6.30;;;;;;;-145.69;100.00;52721.66;5114391;28;20189;-79
2023/01/30 05:58:21;;;;;;;16.07;6.43;;;;;;;-145.69;100.00;52741.47;5114128;28;20682;-78
2023/01/30 06:00:48;;;;;;;17.10;6.90;;;;;;;-145.69;100.00;52721.66;5114324;28;20201;-79
2023/01/30 06:03:14;;;;;;;14.53;6.17;;;;;;;-145.69;100.00;52751.34;5114374;28;20659;-79
2023/01/30 06:05:41;;;;;;;15.73;6.73;;;;;;;-145.69;100.00;52735.50;5114020;28;20204;-79
2023/01/30 06:08:07;;;;;;;16.50;7.60;;;;;;;-145.69;100.00;52741.47;5114595;28;20205;-79
2023/01/30 06:10:35;;;;;;;14.80;6.57;;;;;;;-145.69;100.00;52731.56;5113998;28;20224;-79
2023/01/30 06:13:02;;;;;;;11.63;5.30;;;;;;;-145.69;100.00;52703.81;5114093;28;20201;-79
2023/01/30 06:15:28;;;;;;;10.83;5.40;;;;;;;-145.69;100.00;52777.09;5114027;28;20201;-80
2023/01/30 06:17:55;;;;;;;15.90;5.63;;;;;;;-145.69;100.00;52743.44;5113792;28;20547;-77
2023/01/30 06:20:21;;;;;;;10.63;5.40;;;;;;;-145.69;100.00;52749.38;5114068;28;20413;-79
2023/01/30 06:22:48;;;;;;;12.20;5.53;;;;;;;-145.69;100.00;52745.41;5113756;28;20204;-79
2023/01/30 06:25:15;;;;;;;12.77;5.60;;;;;;;-145.69;100.00;52761.25;5114131;28;20201;-79
2023/01/30 06:27:43;;;;;;;11.27;5.10;;;;;;;-145.69;100.00;52743.44;5097900;28;20212;-80
2023/01/30 06:30:10;;;;;;;14.03;6.17;;;;;;;-145.69;100.00;52739.47;5093302;28;20233;-79
2023/01/30 06:32:37;;;;;;;14.53;5.30;;;;;;;-145.69;100.00;52737.50;5093796;28;20198;-79
2023/01/30 06:35:04;;;;;;;13.07;6.10;;;;;;;-145.69;100.00;52739.47;5103342;28;20203;-79
2023/01/30 06:37:31;;;;;;;14.97;5.73;;;;;;;-145.69;100.00;52757.31;5113514;28;20204;-79
2023/01/30 06:39:57;;;;;;;13.13;5.30;;;;;;;-145.69;100.00;52719.66;5113839;28;20212;-79
2023/01/30 06:42:26;;;;;;;13.90;5.60;;;;;;;-145.69;100.00;52735.50;5113461;28;20205;-79
2023/01/30 06:44:54;;;;;;;9.20;4.70;;;;;;;-145.69;100.00;52773.16;5113389;28;20198;-79
2023/01/30 06:47:20;;;;;;;11.37;4.93;;;;;;;-145.69;100.00;52733.53;5113667;28;20549;-79
2023/01/30 06:49:48;;;;;;;17.23;5.13;;;;;;;-145.69;100.00;52751.34;5113609;28;20229;-78
2023/01/30 06:52:14;;;;;;;11.17;5.37;;;;;;;-145.69;100.00;52682.03;5113318;28;20204;-79
2023/01/30 06:54:40;;;;;;;11.70;5.73;;;;;;;-145.69;100.00;52721.66;5113148;28;20208;-79
2023/01/30 06:57:07;;;;;;;12.70;5.17;;;;;;;-145.69;100.00;52745.41;5113242;28;20675;-79
2023/01/30 06:59:33;;;;;;;11.20;4.97;;;;;;;-145.69;100.00;52719.66;5113364;28;20648;-79
2023/01/30 07:02:01;;;;;;;9.77;4.77;;;;;;;-145.69;100.00;52755.31;5113276;28;20683;-79
2023/01/30 07:04:28;;;;;;;10.57;5.20;;;;;;;-145.69;100.00;52713.72;5113253;28;20195;-78
2023/01/30 07:06:54;;;;;;;12.93;5.50;;;;;;;-145.69;100.00;52711.75;5113688;28;20224;-79
2023/01/30 07:09:21;;;;;;;12.60;5.03;;;;;;;-145.69;100.00;52727.59;5112938;28;20217;-79
2023/01/30 07:11:49;;;;;;;11.27;5.30;;;;;;;-145.69;100.00;52713.72;5113305;28;20205;-79
2023/01/30 07:14:15;;;;;;;13.07;5.37;;;;;;;-145.69;100.00;52695.91;5113358;28;20203;-78
2023/01/30 07:16:42;;;;;;;11.37;5.30;;;;;;;-145.69;100.00;52753.34;5113426;28;20204;-79
2023/01/30 07:19:09;;;;;;;12.73;4.63;;;;;;;-145.69;100.00;52731.56;5113199;28;20279;-79
2023/01/30 07:21:36;;;;;;;11.37;5.03;;;;;;;-145.69;100.00;52731.56;5113308;28;20197;-80
2023/01/30 07:24:02;;;;;;;14.55;6.93;;;;;;;-145.69;100.00;52735.50;5112602;28;20431;-78
2023/01/30 07:26:30;;;;;;;10.77;5.07;;;;;;;-145.69;100.00;52769.19;5113006;28;20721;-79
2023/01/30 07:28:56;;;;;;;13.80;5.63;;;;;;;-145.69;100.00;52735.50;5113248;28;20205;-79
2023/01/30 07:31:23;;;;;;;9.27;4.57;;;;;;;-145.69;100.00;52719.66;5113109;28;20225;-79
2023/01/30 07:33:49;;;;;;;17.10;5.27;;;;;;;-145.69;100.00;52743.44;5113308;28;20201;-79
2023/01/30 07:36:17;;;;;;;9.77;4.20;;;;;;;-145.69;100.00;52711.75;5113070;28;20194;-79
2023/01/30 07:38:43;;;;;;;8.93;4.50;;;;;;;-145.69;100.00;52727.59;5113166;28;20193;-79
2023/01/30 07:41:10;;;;;;;8.80;4.27;;;;;;;-145.69;100.00;52759.28;5113152;28;20244;-79
2023/01/30 07:43:36;;;;;;;8.97;4.53;;;;;;;-145.69;100.00;52747.41;5114582;28;20197;-78
2023/01/30 07:46:03;;;;;;;10.93;4.77;;;;;;;-145.69;100.00;52731.56;5116825;28;20608;-79
2023/01/30 07:48:30;;;;;;;9.67;4.17;;;;;;;-145.69;100.00;52769.19;5117102;28;20197;-79
2023/01/30 07:50:56;;;;;;;10.27;4.57;;;;;;;-145.69;100.00;52705.81;5116907;28;20229;-79
2023/01/30 07:53:24;;;;;;;10.57;4.30;;;;;;;-145.69;100.00;52725.63;5116842;28;20716;-79
2023/01/30 07:55:51;;;;;;;12.77;5.93;;;;;;;-145.69;100.00;52703.81;5117184;27;20205;-78
2023/01/30 07:58:17;;;;;;;11.87;5.20;;;;;;;-145.69;100.00;52713.72;5116779;28;20208;-78
2023/01/30 08:00:44;;;;;;;5.83;3.40;;;;;;;-145.69;100.00;52723.63;5117144;28;20604;-79
2023/01/30 08:03:12;;;;;;;7.97;3.33;;;;;;;-145.69;100.00;52725.63;5116323;28;20675;-79
2023/01/30 08:05:39;;;;;;;7.10;3.33;;;;;;;-145.69;100.00;52713.72;5116598;28;20198;-78
2023/01/30 08:08:05;;;;;;;8.30;3.83;;;;;;;-145.69;100.00;52699.88;5116467;28;20198;-78
2023/01/30 08:10:33;;;;;;;11.50;5.50;;;;;;;-145.69;100.00;52739.47;5116577;28;20231;-78
2023/01/30 08:13:00;;;;;;;7.30;3.80;;;;;;;-145.69;100.00;52709.78;5116228;28;20194;-78
2023/01/30 08:15:26;;;;;;;5.93;3.40;;;;;;;-145.69;100.00;52723.63;5116231;28;20677;-79
2023/01/30 08:17:54;;;;;;;6.03;2.97;;;;;;;-145.69;100.00;52709.78;5116224;28;20575;-78
2023/01/30 08:20:21;;;;;;;8.50;3.97;;;;;;;-145.69;100.00;52693.94;5116089;28;20721;-78
2023/01/30 08:22:47;;;;;;;6.90;3.47;;;;;;;-145.69;100.00;52711.75;5116087;28;20189;-78
2023/01/30 08:25:14;;;;;;;6.27;3.10;;;;;;;-145.69;100.00;52743.44;5116369;28;20568;-78
2023/01/30 08:27:42;;;;;;;5.50;2.80;;;;;;;-145.69;100.00;52687.97;5116353;28;20200;-78
2023/01/30 08:30:13;;;;;;;4.87;2.70;;;;;;;-145.69;100.00;52705.81;5116175;28;20221;-78
2023/01/30 08:32:39;;;;;;;4.30;2.50;;;;;;;-145.69;100.00;52713.72;5116221;28;20201;-78
2023/01/30 08:35:09;;;;;;;4.70;2.70;;;;;;;-145.69;100.00;52697.88;5111229;28;20194;-78
2023/01/30 08:37:36;;;;;;;4.10;2.20;;;;;;;-145.69;100.00;52705.81;5116226;28;20201;-78
2023/01/30 08:40:03;;;;;;;7.00;2.40;;;;;;;-145.69;100.00;52721.66;5116074;28;20205;-78
2023/01/30 08:42:32;;;;;;;5.03;3.00;;;;;;;-145.69;100.00;52709.78;5115158;28;20189;-79
2023/01/30 08:45:00;;;;;;;5.00;2.87;;;;;;;-145.69;100.00;52691.94;5116008;28;20233;-79
2023/01/30 08:47:26;;;;;;;4.20;2.33;;;;;;;-145.69;100.00;52729.56;5115843;28;20204;-77
2023/01/30 08:49:53;;;;;;;4.17;2.80;;;;;;;-145.69;100.00;52684.03;5115846;28;20228;-76
2023/01/30 08:52:19;;;;;;;3.60;2.23;;;;;;;-145.69;100.00;52709.78;5116038;28;20579;-77
2023/01/30 08:54:46;;;;;;;3.70;2.13;;;;;;;-145.69;100.00;52709.78;5114607;28;20197;-76
2023/01/30 08:57:16;;;;;;;5.03;2.47;;;;;;;-145.69;100.00;52713.72;5115825;28;20201;-77
2023/01/30 08:59:43;;;;;;;4.20;2.20;;;;;;;-145.69;100.00;52717.69;5115756;28;20208;-77
2023/01/30 09:02:12;;;;;;;3.67;2.20;;;;;;;-145.69;100.00;52660.25;5114998;28;20284;-77
2023/01/30 09:04:40;;;;;;;4.50;2.27;;;;;;;-145.69;100.00;52666.19;5114471;28;20224;-76
2023/01/30 09:07:07;;;;;;;3.47;1.90;;;;;;;-145.69;100.00;52725.63;5115379;28;20204;-76
2023/01/30 09:09:33;;;;;;;3.50;2.10;;;;;;;-145.69;100.00;52707.78;5115012;28;20278;-77
2023/01/30 09:12:02;;;;;;;2.60;1.80;;;;;;;-145.69;100.00;52670.16;5115300;28;20236;-77
2023/01/30 09:14:29;;;;;;;2.90;2.07;;;;;;;-145.69;100.00;52697.88;5114797;28;20198;-77
2023/01/30 09:16:58;;;;;;;2.93;2.03;;;;;;;-145.69;100.00;52703.81;5115481;28;20204;-77
2023/01/30 09:19:28;;;;;;;3.17;1.93;;;;;;;-145.69;100.00;52703.81;5115438;27;20213;-77
2023/01/30 09:21:56;;;;;;;3.33;1.93;;;;;;;-145.69;100.00;52680.06;5112989;28;20671;-76
2023/01/30 09:24:27;;;;;;;3.10;1.67;;;;;;;-145.69;100.00;52672.13;5113820;28;20292;-76
2023/01/30 09:26:56;;;;;;;2.50;1.90;;;;;;;-145.69;100.00;52676.09;5094628;28;20288;-76
2023/01/30 09:29:23;;;;;;;3.83;1.93;;;;;;;-145.69;100.00;52715.72;5101465;28;20193;-77
2023/01/30 09:31:51;;;;;;;2.77;1.60;;;;;;;-145.69;100.00;52725.63;5114205;28;20711;-77
2023/01/30 09:34:19;;;;;;;2.90;1.67;;;;;;;-145.69;100.00;52695.91;5114830;28;20205;-78
2023/01/30 09:36:48;;;;;;;2.63;1.87;;;;;;;-145.69;100.00;52664.22;5114790;28;20201;-77
2023/01/30 09:39:20;;;;;;;3.47;2.13;;;;;;;-145.69;100.00;52662.22;5114552;28;20217;-77
2023/01/30 09:41:59;;;;;;;4.60;1.80;;;;;;;-145.69;100.00;52691.94;5114859;28;20571;-76
2023/01/30 09:45:01;;;;;;;3.47;1.70;;;;;;;-145.69;100.00;52664.22;5114537;28;20207;-76
2023/01/30 09:47:37;;;;;;;2.10;1.37;;;;;;;-145.69;100.00;52721.66;5105851;28;20284;-78
2023/01/30 09:50:25;;;;;;;2.37;1.50;;;;;;;-145.69;100.00;52693.94;5114514;28;20208;-77
2023/01/30 09:53:01;;;;;;;2.20;1.60;;;;;;;-145.69;100.00;52640.44;5114584;28;20293;-77
2023/01/30 09:55:31;;;;;;;2.17;1.47;;;;;;;-145.69;100.00;52654.31;5114886;28;20205;-77
2023/01/30 09:58:00;;;;;;;2.80;1.80;;;;;;;-145.69;100.00;52670.16;5114516;28;20303;-77
2023/01/30 10:00:34;;;;;;;4.30;1.83;;;;;;;-145.69;100.00;52684.03;5114252;28;20229;-77
2023/01/30 10:03:06;;;;;;;2.20;1.43;;;;;;;-145.69;100.00;52713.72;5114399;28;20241;-77
2023/01/30 10:05:38;;;;;;;3.43;1.60;;;;;;;-145.69;100.00;52707.78;5113983;28;20207;-79
2023/01/30 10:08:30;;;;;;;2.60;1.63;;;;;;;-145.69;100.00;52662.22;5114263;28;20208;-79
2023/01/30 10:11:01;;;;;;;2.70;1.47;;;;;;;-145.69;100.00;52670.16;5114172;28;20249;-77
2023/01/30 10:13:44;;;;;;;4.40;1.70;;;;;;;-145.69;100.00;52691.94;5113678;28;20659;-78
2023/01/30 10:16:18;;;;;;;2.73;1.73;;;;;;;-145.69;100.00;52676.09;5113752;28;20194;-78
2023/01/30 10:19:08;;;;;;;3.20;1.70;;;;;;;-145.69;100.00;52684.03;5113690;28;20237;-77
2023/01/30 10:21:50;;;;;;;3.30;2.00;;;;;;;-145.69;100.00;52684.03;5114061;28;20208;-78
2023/01/30 10:24:49;;;;;;;6.67;2.73;;;;;;;-145.69;100.00;52672.13;5093562;28;20204;-77
2023/01/30 10:27:23;;;;;;;3.43;2.40;;;;;;;-145.69;100.00;52701.84;5085031;28;20198;-78
2023/01/30 10:29:55;;;;;;;2.83;1.40;;;;;;;-145.69;100.00;52666.19;5100543;28;20190;-77
2023/01/30 10:32:27;;;;;;;1.40;1.30;;;;;;;-145.69;100.00;52654.31;5103726;28;20230;-78
2023/01/30 10:34:58;;;;;;;2.27;1.67;;;;;;;-145.69;100.00;52697.88;5093465;28;20675;-78
2023/01/30 10:37:29;;;;;;;1.60;1.40;;;;;;;-145.69;100.00;52666.19;5093731;28;20220;-78
2023/01/30 10:40:05;;;;;;;2.42;1.30;;;;;;;-145.69;100.00;52662.22;5113355;28;20840;-77
2023/01/30 10:42:39;;;;;;;1.77;1.30;;;;;;;-145.69;100.00;52697.88;5113117;28;20719;-77
2023/01/30 10:45:12;;;;;;;1.97;1.30;;;;;;;-145.69;100.00;52666.19;5113509;28;20221;-78
2023/01/30 10:47:49;;;;;;;4.23;1.47;;;;;;;-145.69;100.00;52662.22;5113827;28;20212;-78
2023/01/30 10:50:18;;;;;;;1.80;1.30;;;;;;;-145.69;100.00;52693.94;5113445;28;20571;-77
2023/01/30 10:52:52;;;;;;;3.70;1.40;;;;;;;-145.69;100.00;52701.84;5113436;28;20682;-78
2023/01/30 10:55:29;;;;;;;3.03;1.97;;;;;;;-145.69;100.00;52662.22;5113552;28;20207;-78
2023/01/30 10:58:05;;;;;;;8.50;3.60;;;;;;;-145.69;100.00;52686.00;5113503;28;20197;-78
2023/01/30 11:00:38;;;;;;;9.77;3.87;;;;;;;-145.69;100.00;52678.09;5112827;28;20914;-78
2023/01/30 11:03:15;;;;;;;4.63;1.97;;;;;;;-145.69;100.00;52656.28;5113254;28;20197;-76
2023/01/30 11:05:47;;;;;;;5.17;1.83;;;;;;;-145.69;100.00;52672.13;5113324;28;20193;-78
2023/01/30 11:08:22;;;;;;;4.97;2.17;;;;;;;-145.69;100.00;52650.34;5113570;28;20205;-78
2023/01/30 11:10:51;;;;;;;2.30;1.80;;;;;;;-145.69;100.00;52691.94;5113328;28;20232;-78
2023/01/30 11:13:19;;;;;;;2.73;2.10;;;;;;;-145.69;100.00;52689.97;5113015;28;20194;-78
2023/01/30 11:15:49;;;;;;;2.43;1.30;;;;;;;-145.69;100.00;52670.16;5113500;28;20200;-79
2023/01/30 11:18:29;;;;;;;2.80;1.67;;;;;;;-145.69;100.00;52638.47;5112678;28;20197;-78
2023/01/30 11:21:03;;;;;;;4.33;1.90;;;;;;;-145.69;100.00;52668.19;5113167;28;20209;-79
2023/01/30 11:23:34;;;;;;;3.13;1.90;;;;;;;-145.69;100.00;52674.13;5113336;28;20530;-78